sensor_id;sensor_type;location;lat;lon;timestamp;P1;durP1;ratioP1;P2;durP2;ratioP2
22916;SDS011;11624;53.250;7.456;2023-02-01T00:01:23;21.83;;;3.95;;
22916;SDS011;11624;53.250;7.456;2023-02-01T00:03:51;29.67;;;4.82;;
22916;SDS011;11624;53.250;7.456;2023-02-01T00:06:19;29.55;;;4.80;;
22916;SDS011;11624;53.250;7.456;2023-02-01T00:08:48;23.42;;;5.03;;
22916;SDS011;11624;53.250;7.456;2023-02-01T00:11:17;34.42;;;5.28;;
22916;SDS011;11624;53.250;7.456;2023-02-01T00:13:46;29.83;;;4.50;;
22916;SDS011;11624;53.250;7.456;2023-02-01T00:16:15;34.38;;;4.93;;
22916;SDS011;11624;53.250;7.456;2023-02-01T00:18:45;28.23;;;4.45;;
22916;SDS011;11624;53.250;7.456;2023-02-01T00:21:14;29.42;;;4.70;;
22916;SDS011;11624;53.250;7.456;2023-02-01T00:23:44;26.15;;;4.82;;
22916;SDS011;11624;53.250;7.456;2023-02-01T00:26:14;29.17;;;4.82;;
22916;SDS011;11624;53.250;7.456;2023-02-01T00:28:45;34.45;;;4.97;;
22916;SDS011;11624;53.250;7.456;2023-02-01T00:31:13;32.30;;;4.90;;
22916;SDS011;11624;53.250;7.456;2023-02-01T00:33:42;35.53;;;5.25;;
22916;SDS011;11624;53.250;7.456;2023-02-01T00:36:14;29.75;;;4.32;;
22916;SDS011;11624;53.250;7.456;2023-02-01T00:38:43;31.25;;;5.20;;
22916;SDS011;11624;53.250;7.456;2023-02-01T00:41:12;28.10;;;4.88;;
22916;SDS011;11624;53.250;7.456;2023-02-01T00:43:42;31.60;;;5.55;;
22916;SDS011;11624;53.250;7.456;2023-02-01T00:46:13;25.45;;;4.75;;
22916;SDS011;11624;53.250;7.456;2023-02-01T00:48:42;24.73;;;3.97;;
22916;SDS011;11624;53.250;7.456;2023-02-01T00:51:11;37.38;;;4.60;;
22916;SDS011;11624;53.250;7.456;2023-02-01T00:53:41;28.00;;;5.25;;
22916;SDS011;11624;53.250;7.456;2023-02-01T00:56:09;31.02;;;4.55;;
22916;SDS011;11624;53.250;7.456;2023-02-01T00:58:38;36.83;;;5.00;;
22916;SDS011;11624;53.250;7.456;2023-02-01T01:01:07;27.30;;;4.78;;
22916;SDS011;11624;53.250;7.456;2023-02-01T01:03:39;30.83;;;5.00;;
22916;SDS011;11624;53.250;7.456;2023-02-01T01:06:09;27.52;;;4.47;;
22916;SDS011;11624;53.250;7.456;2023-02-01T01:08:40;27.45;;;3.83;;
22916;SDS011;11624;53.250;7.456;2023-02-01T01:11:09;25.52;;;4.30;;
22916;SDS011;11624;53.250;7.456;2023-02-01T01:13:39;31.07;;;5.00;;
22916;SDS011;11624;53.250;7.456;2023-02-01T01:16:09;27.27;;;5.63;;
22916;SDS011;11624;53.250;7.456;2023-02-01T01:18:40;24.73;;;3.67;;
22916;SDS011;11624;53.250;7.456;2023-02-01T01:21:09;27.48;;;4.47;;
22916;SDS011;11624;53.250;7.456;2023-02-01T01:23:40;26.90;;;4.53;;
22916;SDS011;11624;53.250;7.456;2023-02-01T01:26:14;23.02;;;4.30;;
22916;SDS011;11624;53.250;7.456;2023-02-01T01:28:44;25.60;;;4.28;;
22916;SDS011;11624;53.250;7.456;2023-02-01T01:31:13;29.17;;;4.68;;
22916;SDS011;11624;53.250;7.456;2023-02-01T01:33:46;22.98;;;4.25;;
22916;SDS011;11624;53.250;7.456;2023-02-01T01:36:15;25.45;;;4.97;;
22916;SDS011;11624;53.250;7.456;2023-02-01T01:38:44;23.92;;;4.35;;
22916;SDS011;11624;53.250;7.456;2023-02-01T01:41:13;35.92;;;4.88;;
22916;SDS011;11624;53.250;7.456;2023-02-01T01:43:48;35.55;;;5.07;;
22916;SDS011;11624;53.250;7.456;2023-02-01T01:46:20;28.38;;;4.00;;
22916;SDS011;11624;53.250;7.456;2023-02-01T01:48:53;25.92;;;4.80;;
22916;SDS011;11624;53.250;7.456;2023-02-01T01:51:26;25.67;;;4.43;;
22916;SDS011;11624;53.250;7.456;2023-02-01T01:53:59;22.98;;;4.50;;
22916;SDS011;11624;53.250;7.456;2023-02-01T01:56:30;27.25;;;4.65;;
22916;SDS011;11624;53.250;7.456;2023-02-01T01:59:01;25.25;;;3.65;;
22916;SDS011;11624;53.250;7.456;2023-02-01T02:01:32;34.42;;;4.07;;
22916;SDS011;11624;53.250;7.456;2023-02-01T02:04:01;25.85;;;4.00;;
22916;SDS011;11624;53.250;7.456;2023-02-01T02:06:33;37.88;;;4.68;;
22916;SDS011;11624;53.250;7.456;2023-02-01T02:09:06;29.92;;;4.03;;
22916;SDS011;11624;53.250;7.456;2023-02-01T02:11:34;29.70;;;4.88;;
22916;SDS011;11624;53.250;7.456;2023-02-01T02:14:04;26.60;;;4.47;;
22916;SDS011;11624;53.250;7.456;2023-02-01T02:26:07;30.98;;;5.25;;
22916;SDS011;11624;53.250;7.456;2023-02-01T02:32:23;23.67;;;4.68;;
22916;SDS011;11624;53.250;7.456;2023-02-01T02:35:14;27.08;;;4.78;;
22916;SDS011;11624;53.250;7.456;2023-02-01T02:37:51;25.27;;;4.25;;
22916;SDS011;11624;53.250;7.456;2023-02-01T02:40:25;24.30;;;4.20;;
22916;SDS011;11624;53.250;7.456;2023-02-01T02:43:06;22.63;;;4.65;;
22916;SDS011;11624;53.250;7.456;2023-02-01T02:46:00;26.98;;;4.45;;
22916;SDS011;11624;53.250;7.456;2023-02-01T02:48:58;24.27;;;4.38;;
22916;SDS011;11624;53.250;7.456;2023-02-01T02:51:32;29.20;;;5.95;;
22916;SDS011;11624;53.250;7.456;2023-02-01T02:54:24;25.67;;;4.80;;
22916;SDS011;11624;53.250;7.456;2023-02-01T02:57:17;25.40;;;4.63;;
22916;SDS011;11624;53.250;7.456;2023-02-01T03:00:06;23.52;;;4.15;;
22916;SDS011;11624;53.250;7.456;2023-02-01T03:02:55;27.25;;;4.25;;
22916;SDS011;11624;53.250;7.456;2023-02-01T03:05:43;27.58;;;4.53;;
22916;SDS011;11624;53.250;7.456;2023-02-01T03:08:14;26.40;;;3.95;;
22916;SDS011;11624;53.250;7.456;2023-02-01T03:10:47;23.00;;;4.07;;
22916;SDS011;11624;53.250;7.456;2023-02-01T03:13:24;27.85;;;5.22;;
22916;SDS011;11624;53.250;7.456;2023-02-01T03:15:59;23.17;;;4.30;;
22916;SDS011;11624;53.250;7.456;2023-02-01T03:18:33;25.13;;;4.67;;
22916;SDS011;11624;53.250;7.456;2023-02-01T03:21:07;24.13;;;4.35;;
22916;SDS011;11624;53.250;7.456;2023-02-01T03:23:40;22.50;;;4.22;;
22916;SDS011;11624;53.250;7.456;2023-02-01T03:26:11;29.83;;;4.40;;
22916;SDS011;11624;53.250;7.456;2023-02-01T03:28:43;21.83;;;4.23;;
22916;SDS011;11624;53.250;7.456;2023-02-01T03:31:16;27.70;;;4.95;;
22916;SDS011;11624;53.250;7.456;2023-02-01T03:33:44;27.10;;;4.33;;
22916;SDS011;11624;53.250;7.456;2023-02-01T03:36:15;25.63;;;5.18;;
22916;SDS011;11624;53.250;7.456;2023-02-01T03:38:52;27.23;;;5.55;;
22916;SDS011;11624;53.250;7.456;2023-02-01T03:41:27;29.93;;;5.00;;
22916;SDS011;11624;53.250;7.456;2023-02-01T03:44:03;28.77;;;4.55;;
22916;SDS011;11624;53.250;7.456;2023-02-01T03:46:37;27.45;;;4.65;;
22916;SDS011;11624;53.250;7.456;2023-02-01T03:49:13;22.92;;;4.20;;
22916;SDS011;11624;53.250;7.456;2023-02-01T03:51:47;24.70;;;4.20;;
22916;SDS011;11624;53.250;7.456;2023-02-01T03:54:20;24.73;;;4.07;;
22916;SDS011;11624;53.250;7.456;2023-02-01T03:56:49;32.75;;;4.53;;
22916;SDS011;11624;53.250;7.456;2023-02-01T03:59:18;26.97;;;4.67;;
22916;SDS011;11624;53.250;7.456;2023-02-01T04:01:46;24.95;;;4.50;;
22916;SDS011;11624;53.250;7.456;2023-02-01T04:04:15;26.13;;;4.60;;
22916;SDS011;11624;53.250;7.456;2023-02-01T04:06:51;26.42;;;4.50;;
22916;SDS011;11624;53.250;7.456;2023-02-01T04:09:21;27.05;;;4.28;;
22916;SDS011;11624;53.250;7.456;2023-02-01T04:11:50;26.17;;;3.78;;
22916;SDS011;11624;53.250;7.456;2023-02-01T04:14:18;24.95;;;3.70;;
22916;SDS011;11624;53.250;7.456;2023-02-01T04:16:46;29.55;;;4.07;;
22916;SDS011;11624;53.250;7.456;2023-02-01T04:19:15;24.15;;;5.03;;
22916;SDS011;11624;53.250;7.456;2023-02-01T04:21:43;20.97;;;3.80;;
22916;SDS011;11624;53.250;7.456;2023-02-01T04:24:11;21.50;;;3.88;;
22916;SDS011;11624;53.250;7.456;2023-02-01T04:26:41;21.63;;;4.20;;
22916;SDS011;11624;53.250;7.456;2023-02-01T04:29:09;26.38;;;4.65;;
22916;SDS011;11624;53.250;7.456;2023-02-01T04:31:38;15.50;;;2.80;;
22916;SDS011;11624;53.250;7.456;2023-02-01T04:34:06;14.27;;;2.90;;
22916;SDS011;11624;53.250;7.456;2023-02-01T04:36:35;19.53;;;3.10;;
22916;SDS011;11624;53.250;7.456;2023-02-01T04:39:03;24.75;;;3.50;;
22916;SDS011;11624;53.250;7.456;2023-02-01T04:41:32;25.70;;;3.90;;
22916;SDS011;11624;53.250;7.456;2023-02-01T04:44:01;23.88;;;3.83;;
22916;SDS011;11624;53.250;7.456;2023-02-01T04:46:30;25.83;;;5.17;;
22916;SDS011;11624;53.250;7.456;2023-02-01T04:48:58;24.83;;;4.70;;
22916;SDS011;11624;53.250;7.456;2023-02-01T04:51:26;25.85;;;5.07;;
22916;SDS011;11624;53.250;7.456;2023-02-01T04:53:55;30.03;;;5.40;;
22916;SDS011;11624;53.250;7.456;2023-02-01T04:56:23;30.15;;;5.10;;
22916;SDS011;11624;53.250;7.456;2023-02-01T04:58:51;21.63;;;4.20;;
22916;SDS011;11624;53.250;7.456;2023-02-01T05:01:21;35.58;;;4.22;;
22916;SDS011;11624;53.250;7.456;2023-02-01T05:03:51;31.98;;;4.05;;
22916;SDS011;11624;53.250;7.456;2023-02-01T05:06:19;24.60;;;4.57;;
22916;SDS011;11624;53.250;7.456;2023-02-01T05:08:47;27.43;;;4.80;;
22916;SDS011;11624;53.250;7.456;2023-02-01T05:11:16;28.58;;;4.30;;
22916;SDS011;11624;53.250;7.456;2023-02-01T05:13:58;26.65;;;4.63;;
22916;SDS011;11624;53.250;7.456;2023-02-01T05:16:29;27.50;;;4.93;;
22916;SDS011;11624;53.250;7.456;2023-02-01T05:18:58;27.08;;;4.30;;
22916;SDS011;11624;53.250;7.456;2023-02-01T05:21:26;27.05;;;4.97;;
22916;SDS011;11624;53.250;7.456;2023-02-01T05:23:54;26.77;;;4.15;;
22916;SDS011;11624;53.250;7.456;2023-02-01T05:26:42;32.78;;;4.75;;
22916;SDS011;11624;53.250;7.456;2023-02-01T05:37:26;30.98;;;4.47;;
22916;SDS011;11624;53.250;7.456;2023-02-01T05:44:28;26.52;;;4.88;;
22916;SDS011;11624;53.250;7.456;2023-02-01T05:51:49;24.08;;;4.85;;
22916;SDS011;11624;53.250;7.456;2023-02-01T05:54:49;35.45;;;5.47;;
22916;SDS011;11624;53.250;7.456;2023-02-01T05:58:51;22.80;;;4.57;;
22916;SDS011;11624;53.250;7.456;2023-02-01T06:02:19;24.63;;;4.97;;
22916;SDS011;11624;53.250;7.456;2023-02-01T06:30:07;27.67;;;5.30;;
22916;SDS011;11624;53.250;7.456;2023-02-01T06:32:36;25.58;;;4.63;;
22916;SDS011;11624;53.250;7.456;2023-02-01T06:35:06;31.05;;;4.88;;
22916;SDS011;11624;53.250;7.456;2023-02-01T06:37:36;29.27;;;5.07;;
22916;SDS011;11624;53.250;7.456;2023-02-01T06:40:05;27.20;;;4.88;;
22916;SDS011;11624;53.250;7.456;2023-02-01T06:42:35;27.60;;;3.97;;
22916;SDS011;11624;53.250;7.456;2023-02-01T06:45:03;35.25;;;4.75;;
22916;SDS011;11624;53.250;7.456;2023-02-01T06:47:34;25.23;;;4.28;;
22916;SDS011;11624;53.250;7.456;2023-02-01T06:50:02;32.05;;;5.80;;
22916;SDS011;11624;53.250;7.456;2023-02-01T06:52:31;34.03;;;5.32;;
22916;SDS011;11624;53.250;7.456;2023-02-01T06:54:59;28.23;;;4.55;;
22916;SDS011;11624;53.250;7.456;2023-02-01T06:57:27;31.25;;;4.40;;
22916;SDS011;11624;53.250;7.456;2023-02-01T06:59:57;28.08;;;4.53;;
22916;SDS011;11624;53.250;7.456;2023-02-01T07:02:25;36.63;;;5.22;;
22916;SDS011;11624;53.250;7.456;2023-02-01T07:04:55;33.47;;;5.45;;
22916;SDS011;11624;53.250;7.456;2023-02-01T07:07:23;32.17;;;5.05;;
22916;SDS011;11624;53.250;7.456;2023-02-01T07:09:51;42.75;;;5.43;;
22916;SDS011;11624;53.250;7.456;2023-02-01T07:12:19;32.72;;;4.88;;
22916;SDS011;11624;53.250;7.456;2023-02-01T07:14:47;33.83;;;5.15;;
22916;SDS011;11624;53.250;7.456;2023-02-01T07:17:15;29.00;;;4.82;;
22916;SDS011;11624;53.250;7.456;2023-02-01T07:19:43;30.17;;;5.13;;
22916;SDS011;11624;53.250;7.456;2023-02-01T07:22:13;32.33;;;5.05;;
22916;SDS011;11624;53.250;7.456;2023-02-01T07:24:43;25.17;;;3.90;;
22916;SDS011;11624;53.250;7.456;2023-02-01T07:27:12;30.58;;;5.05;;
22916;SDS011;11624;53.250;7.456;2023-02-01T07:29:40;37.33;;;5.33;;
22916;SDS011;11624;53.250;7.456;2023-02-01T07:32:08;29.40;;;4.63;;
22916;SDS011;11624;53.250;7.456;2023-02-01T07:34:36;31.90;;;4.78;;
22916;SDS011;11624;53.250;7.456;2023-02-01T07:37:04;28.03;;;4.57;;
22916;SDS011;11624;53.250;7.456;2023-02-01T07:39:34;25.90;;;4.47;;
22916;SDS011;11624;53.250;7.456;2023-02-01T07:42:02;31.77;;;4.93;;
22916;SDS011;11624;53.250;7.456;2023-02-01T07:44:30;30.50;;;4.85;;
22916;SDS011;11624;53.250;7.456;2023-02-01T07:46:58;30.38;;;4.80;;
22916;SDS011;11624;53.250;7.456;2023-02-01T07:49:26;29.23;;;5.20;;
22916;SDS011;11624;53.250;7.456;2023-02-01T07:51:54;23.17;;;4.73;;
22916;SDS011;11624;53.250;7.456;2023-02-01T07:54:22;27.38;;;4.57;;
22916;SDS011;11624;53.250;7.456;2023-02-01T07:56:52;31.23;;;4.63;;
22916;SDS011;11624;53.250;7.456;2023-02-01T07:59:20;19.65;;;3.60;;
22916;SDS011;11624;53.250;7.456;2023-02-01T08:01:48;31.40;;;5.43;;
22916;SDS011;11624;53.250;7.456;2023-02-01T08:04:15;28.00;;;3.92;;
22916;SDS011;11624;53.250;7.456;2023-02-01T08:06:43;30.48;;;4.95;;
22916;SDS011;11624;53.250;7.456;2023-02-01T08:09:11;25.13;;;4.20;;
22916;SDS011;11624;53.250;7.456;2023-02-01T08:11:39;28.23;;;4.25;;
22916;SDS011;11624;53.250;7.456;2023-02-01T08:14:09;30.23;;;5.25;;
22916;SDS011;11624;53.250;7.456;2023-02-01T08:16:37;30.33;;;5.05;;
22916;SDS011;11624;53.250;7.456;2023-02-01T08:19:05;28.17;;;4.80;;
22916;SDS011;11624;53.250;7.456;2023-02-01T08:21:33;32.90;;;4.88;;
22916;SDS011;11624;53.250;7.456;2023-02-01T08:24:04;28.65;;;4.55;;
22916;SDS011;11624;53.250;7.456;2023-02-01T08:26:33;33.38;;;5.80;;
22916;SDS011;11624;53.250;7.456;2023-02-01T08:29:02;28.02;;;4.47;;
22916;SDS011;11624;53.250;7.456;2023-02-01T08:31:33;31.27;;;4.13;;
22916;SDS011;11624;53.250;7.456;2023-02-01T08:34:02;25.50;;;4.18;;
22916;SDS011;11624;53.250;7.456;2023-02-01T08:36:31;25.00;;;4.22;;
22916;SDS011;11624;53.250;7.456;2023-02-01T08:39:00;30.35;;;4.78;;
22916;SDS011;11624;53.250;7.456;2023-02-01T08:41:32;29.45;;;4.60;;
22916;SDS011;11624;53.250;7.456;2023-02-01T08:44:00;25.35;;;5.38;;
22916;SDS011;11624;53.250;7.456;2023-02-01T08:46:28;30.17;;;4.82;;
22916;SDS011;11624;53.250;7.456;2023-02-01T08:48:57;30.60;;;5.55;;
22916;SDS011;11624;53.250;7.456;2023-02-01T08:51:25;29.30;;;5.38;;
22916;SDS011;11624;53.250;7.456;2023-02-01T08:53:53;27.30;;;4.72;;
22916;SDS011;11624;53.250;7.456;2023-02-01T08:56:21;31.38;;;4.07;;
22916;SDS011;11624;53.250;7.456;2023-02-01T08:58:50;26.67;;;4.70;;
22916;SDS011;11624;53.250;7.456;2023-02-01T09:01:18;30.88;;;4.68;;
22916;SDS011;11624;53.250;7.456;2023-02-01T09:03:46;29.80;;;5.53;;
22916;SDS011;11624;53.250;7.456;2023-02-01T09:06:15;34.13;;;4.80;;
22916;SDS011;11624;53.250;7.456;2023-02-01T09:08:44;30.42;;;5.28;;
22916;SDS011;11624;53.250;7.456;2023-02-01T09:11:13;27.48;;;4.28;;
22916;SDS011;11624;53.250;7.456;2023-02-01T09:13:42;27.52;;;4.50;;
22916;SDS011;11624;53.250;7.456;2023-02-01T09:16:11;27.67;;;5.47;;
22916;SDS011;11624;53.250;7.456;2023-02-01T09:18:39;28.50;;;4.75;;
22916;SDS011;11624;53.250;7.456;2023-02-01T09:21:23;26.27;;;4.30;;
22916;SDS011;11624;53.250;7.456;2023-02-01T09:23:51;25.70;;;4.68;;
22916;SDS011;11624;53.250;7.456;2023-02-01T09:26:19;28.65;;;4.85;;
22916;SDS011;11624;53.250;7.456;2023-02-01T09:28:57;25.38;;;4.45;;
22916;SDS011;11624;53.250;7.456;2023-02-01T09:31:25;27.98;;;4.68;;
22916;SDS011;11624;53.250;7.456;2023-02-01T09:33:56;21.00;;;3.80;;
22916;SDS011;11624;53.250;7.456;2023-02-01T09:36:26;34.00;;;5.00;;
22916;SDS011;11624;53.250;7.456;2023-02-01T09:38:56;20.08;;;4.13;;
22916;SDS011;11624;53.250;7.456;2023-02-01T09:41:47;24.92;;;4.30;;
22916;SDS011;11624;53.250;7.456;2023-02-01T09:44:32;24.70;;;4.53;;
22916;SDS011;11624;53.250;7.456;2023-02-01T09:47:17;29.30;;;3.88;;
22916;SDS011;11624;53.250;7.456;2023-02-01T09:49:49;29.88;;;4.25;;
22916;SDS011;11624;53.250;7.456;2023-02-01T09:52:25;21.38;;;4.15;;
22916;SDS011;11624;53.250;7.456;2023-02-01T09:54:59;29.75;;;3.50;;
22916;SDS011;11624;53.250;7.456;2023-02-01T09:57:35;25.33;;;3.53;;
22916;SDS011;11624;53.250;7.456;2023-02-01T10:00:13;23.90;;;3.88;;
22916;SDS011;11624;53.250;7.456;2023-02-01T10:02:45;30.98;;;4.43;;
22916;SDS011;11624;53.250;7.456;2023-02-01T10:05:14;30.13;;;4.10;;
22916;SDS011;11624;53.250;7.456;2023-02-01T10:07:48;29.35;;;4.00;;
22916;SDS011;11624;53.250;7.456;2023-02-01T10:10:26;25.10;;;4.07;;
22916;SDS011;11624;53.250;7.456;2023-02-01T10:13:01;19.38;;;3.20;;
22916;SDS011;11624;53.250;7.456;2023-02-01T10:15:45;23.92;;;3.92;;
22916;SDS011;11624;53.250;7.456;2023-02-01T10:18:32;32.40;;;4.78;;
22916;SDS011;11624;53.250;7.456;2023-02-01T10:21:22;31.15;;;4.93;;
22916;SDS011;11624;53.250;7.456;2023-02-01T10:24:02;24.45;;;4.35;;
22916;SDS011;11624;53.250;7.456;2023-02-01T10:26:45;24.02;;;3.60;;
22916;SDS011;11624;53.250;7.456;2023-02-01T10:29:18;16.25;;;3.53;;
22916;SDS011;11624;53.250;7.456;2023-02-01T10:31:50;20.63;;;4.15;;
22916;SDS011;11624;53.250;7.456;2023-02-01T10:34:19;22.67;;;3.40;;
22916;SDS011;11624;53.250;7.456;2023-02-01T10:36:52;18.40;;;4.03;;
22916;SDS011;11624;53.250;7.456;2023-02-01T10:39:24;27.55;;;3.67;;
22916;SDS011;11624;53.250;7.456;2023-02-01T10:41:52;19.75;;;3.63;;
22916;SDS011;11624;53.250;7.456;2023-02-01T10:44:23;23.52;;;3.85;;
22916;SDS011;11624;53.250;7.456;2023-02-01T10:46:54;19.13;;;2.78;;
22916;SDS011;11624;53.250;7.456;2023-02-01T10:49:22;18.02;;;3.17;;
22916;SDS011;11624;53.250;7.456;2023-02-01T10:51:58;24.73;;;4.18;;
22916;SDS011;11624;53.250;7.456;2023-02-01T10:54:34;19.48;;;3.88;;
22916;SDS011;11624;53.250;7.456;2023-02-01T10:57:06;22.45;;;4.18;;
22916;SDS011;11624;53.250;7.456;2023-02-01T10:59:36;24.50;;;3.70;;
22916;SDS011;11624;53.250;7.456;2023-02-01T11:02:11;28.57;;;3.87;;
22916;SDS011;11624;53.250;7.456;2023-02-01T11:04:43;23.10;;;3.63;;
22916;SDS011;11624;53.250;7.456;2023-02-01T11:07:23;23.98;;;3.83;;
22916;SDS011;11624;53.250;7.456;2023-02-01T11:09:54;19.90;;;3.38;;
22916;SDS011;11624;53.250;7.456;2023-02-01T11:12:28;19.10;;;3.30;;
22916;SDS011;11624;53.250;7.456;2023-02-01T11:14:59;22.02;;;4.10;;
22916;SDS011;11624;53.250;7.456;2023-02-01T11:17:33;18.92;;;3.45;;
22916;SDS011;11624;53.250;7.456;2023-02-01T11:20:03;20.17;;;4.17;;
22916;SDS011;11624;53.250;7.456;2023-02-01T11:22:34;11.57;;;1.67;;
22916;SDS011;11624;53.250;7.456;2023-02-01T11:25:08;8.30;;;1.08;;
22916;SDS011;11624;53.250;7.456;2023-02-01T11:27:37;8.00;;;0.90;;
22916;SDS011;11624;53.250;7.456;2023-02-01T11:30:22;14.47;;;1.33;;
22916;SDS011;11624;53.250;7.456;2023-02-01T11:32:59;5.10;;;0.97;;
22916;SDS011;11624;53.250;7.456;2023-02-01T11:35:31;6.83;;;0.67;;
22916;SDS011;11624;53.250;7.456;2023-02-01T11:38:09;2.53;;;0.60;;
22916;SDS011;11624;53.250;7.456;2023-02-01T11:40:43;5.47;;;1.00;;
22916;SDS011;11624;53.250;7.456;2023-02-01T11:43:13;5.87;;;1.10;;
22916;SDS011;11624;53.250;7.456;2023-02-01T11:45:53;5.13;;;0.90;;
22916;SDS011;11624;53.250;7.456;2023-02-01T11:48:23;9.27;;;1.10;;
22916;SDS011;11624;53.250;7.456;2023-02-01T11:50:57;9.87;;;1.30;;
22916;SDS011;11624;53.250;7.456;2023-02-01T11:53:39;8.77;;;1.00;;
22916;SDS011;11624;53.250;7.456;2023-02-01T11:56:22;6.63;;;1.20;;
22916;SDS011;11624;53.250;7.456;2023-02-01T12:01:59;6.57;;;1.13;;
22916;SDS011;11624;53.250;7.456;2023-02-01T12:04:43;5.47;;;0.80;;
22916;SDS011;11624;53.250;7.456;2023-02-01T12:07:36;7.30;;;1.20;;
22916;SDS011;11624;53.250;7.456;2023-02-01T12:10:23;5.80;;;1.00;;
22916;SDS011;11624;53.250;7.456;2023-02-01T12:13:01;9.40;;;1.37;;
22916;SDS011;11624;53.250;7.456;2023-02-01T12:15:45;6.43;;;1.03;;
22916;SDS011;11624;53.250;7.456;2023-02-01T12:18:26;9.10;;;1.23;;
22916;SDS011;11624;53.250;7.456;2023-02-01T12:21:11;15.00;;;1.60;;
22916;SDS011;11624;53.250;7.456;2023-02-01T12:23:58;9.70;;;1.27;;
22916;SDS011;11624;53.250;7.456;2023-02-01T12:29:37;9.73;;;1.77;;
22916;SDS011;11624;53.250;7.456;2023-02-01T12:32:38;9.60;;;1.23;;
22916;SDS011;11624;53.250;7.456;2023-02-01T12:35:21;11.87;;;1.40;;
22916;SDS011;11624;53.250;7.456;2023-02-01T12:38:14;8.40;;;1.40;;
22916;SDS011;11624;53.250;7.456;2023-02-01T12:40:56;8.43;;;1.40;;
22916;SDS011;11624;53.250;7.456;2023-02-01T12:43:34;13.93;;;1.30;;
22916;SDS011;11624;53.250;7.456;2023-02-01T12:46:08;11.50;;;1.70;;
22916;SDS011;11624;53.250;7.456;2023-02-01T12:48:41;14.60;;;2.00;;
22916;SDS011;11624;53.250;7.456;2023-02-01T12:51:20;13.17;;;2.20;;
22916;SDS011;11624;53.250;7.456;2023-02-01T12:53:52;15.20;;;2.50;;
22916;SDS011;11624;53.250;7.456;2023-02-01T12:59:28;13.13;;;2.10;;
22916;SDS011;11624;53.250;7.456;2023-02-01T13:02:06;13.83;;;1.90;;
22916;SDS011;11624;53.250;7.456;2023-02-01T13:04:44;12.23;;;1.97;;
22916;SDS011;11624;53.250;7.456;2023-02-01T13:07:25;18.02;;;2.35;;
22916;SDS011;11624;53.250;7.456;2023-02-01T13:09:59;15.52;;;2.35;;
22916;SDS011;11624;53.250;7.456;2023-02-01T13:12:34;14.38;;;2.33;;
22916;SDS011;11624;53.250;7.456;2023-02-01T13:15:10;18.08;;;2.70;;
22916;SDS011;11624;53.250;7.456;2023-02-01T13:17:42;23.17;;;2.78;;
22916;SDS011;11624;53.250;7.456;2023-02-01T13:20:15;18.95;;;3.55;;
22916;SDS011;11624;53.250;7.456;2023-02-01T13:22:50;24.25;;;4.00;;
22916;SDS011;11624;53.250;7.456;2023-02-01T13:25:25;27.38;;;4.45;;
22916;SDS011;11624;53.250;7.456;2023-02-01T13:28:00;19.50;;;3.30;;
22916;SDS011;11624;53.250;7.456;2023-02-01T13:30:34;23.58;;;3.70;;
22916;SDS011;11624;53.250;7.456;2023-02-01T13:33:21;26.13;;;3.80;;
22916;SDS011;11624;53.250;7.456;2023-02-01T13:36:30;28.30;;;3.53;;
22916;SDS011;11624;53.250;7.456;2023-02-01T13:39:24;23.77;;;4.13;;
22916;SDS011;11624;53.250;7.456;2023-02-01T13:42:15;27.58;;;5.13;;
22916;SDS011;11624;53.250;7.456;2023-02-01T13:44:47;23.20;;;4.18;;
22916;SDS011;11624;53.250;7.456;2023-02-01T13:47:25;29.85;;;5.25;;
22916;SDS011;11624;53.250;7.456;2023-02-01T13:49:57;36.85;;;4.88;;
22916;SDS011;11624;53.250;7.456;2023-02-01T13:52:32;29.30;;;4.18;;
22916;SDS011;11624;53.250;7.456;2023-02-01T14:00:46;25.58;;;4.00;;
22916;SDS011;11624;53.250;7.456;2023-02-01T14:03:18;27.95;;;4.72;;
22916;SDS011;11624;53.250;7.456;2023-02-01T14:05:56;27.05;;;4.82;;
22916;SDS011;11624;53.250;7.456;2023-02-01T14:08:42;34.97;;;5.43;;
22916;SDS011;11624;53.250;7.456;2023-02-01T14:11:34;28.90;;;5.05;;
22916;SDS011;11624;53.250;7.456;2023-02-01T14:23:24;23.48;;;4.15;;
22916;SDS011;11624;53.250;7.456;2023-02-01T14:26:07;33.03;;;4.85;;
22916;SDS011;11624;53.250;7.456;2023-02-01T14:28:54;27.98;;;4.25;;
22916;SDS011;11624;53.250;7.456;2023-02-01T14:31:33;26.80;;;4.72;;
22916;SDS011;11624;53.250;7.456;2023-02-01T14:34:15;26.73;;;4.07;;
22916;SDS011;11624;53.250;7.456;2023-02-01T14:36:48;25.13;;;4.05;;
22916;SDS011;11624;53.250;7.456;2023-02-01T14:39:22;30.40;;;4.57;;
22916;SDS011;11624;53.250;7.456;2023-02-01T14:41:55;24.30;;;4.38;;
22916;SDS011;11624;53.250;7.456;2023-02-01T14:44:32;27.00;;;4.10;;
22916;SDS011;11624;53.250;7.456;2023-02-01T14:50:10;30.42;;;4.55;;
22916;SDS011;11624;53.250;7.456;2023-02-01T14:52:59;25.27;;;4.05;;
22916;SDS011;11624;53.250;7.456;2023-02-01T14:55:38;27.63;;;4.97;;
22916;SDS011;11624;53.250;7.456;2023-02-01T14:58:13;27.63;;;3.97;;
22916;SDS011;11624;53.250;7.456;2023-02-01T15:00:50;33.78;;;4.45;;
22916;SDS011;11624;53.250;7.456;2023-02-01T15:03:38;27.58;;;4.47;;
22916;SDS011;11624;53.250;7.456;2023-02-01T15:06:23;31.00;;;5.00;;
22916;SDS011;11624;53.250;7.456;2023-02-01T15:08:55;27.30;;;4.40;;
22916;SDS011;11624;53.250;7.456;2023-02-01T15:11:27;27.70;;;4.15;;
22916;SDS011;11624;53.250;7.456;2023-02-01T15:13:55;28.45;;;4.22;;
22916;SDS011;11624;53.250;7.456;2023-02-01T15:16:26;23.58;;;3.33;;
22916;SDS011;11624;53.250;7.456;2023-02-01T15:19:06;23.60;;;3.67;;
22916;SDS011;11624;53.250;7.456;2023-02-01T15:21:43;23.90;;;4.20;;
22916;SDS011;11624;53.250;7.456;2023-02-01T15:24:13;29.40;;;4.72;;
22916;SDS011;11624;53.250;7.456;2023-02-01T15:26:47;36.72;;;4.28;;
22916;SDS011;11624;53.250;7.456;2023-02-01T15:29:16;24.27;;;4.82;;
22916;SDS011;11624;53.250;7.456;2023-02-01T15:31:45;28.02;;;4.35;;
22916;SDS011;11624;53.250;7.456;2023-02-01T15:34:17;31.95;;;4.55;;
22916;SDS011;11624;53.250;7.456;2023-02-01T15:36:46;22.08;;;3.97;;
22916;SDS011;11624;53.250;7.456;2023-02-01T15:39:29;28.55;;;4.20;;
22916;SDS011;11624;53.250;7.456;2023-02-01T15:42:00;29.60;;;4.28;;
22916;SDS011;11624;53.250;7.456;2023-02-01T15:44:38;32.30;;;4.95;;
22916;SDS011;11624;53.250;7.456;2023-02-01T15:47:10;23.73;;;3.85;;
22916;SDS011;11624;53.250;7.456;2023-02-01T15:49:43;27.20;;;4.25;;
22916;SDS011;11624;53.250;7.456;2023-02-01T15:52:18;25.05;;;4.13;;
22916;SDS011;11624;53.250;7.456;2023-02-01T15:54:51;24.02;;;3.83;;
22916;SDS011;11624;53.250;7.456;2023-02-01T15:57:23;24.55;;;4.30;;
22916;SDS011;11624;53.250;7.456;2023-02-01T15:59:57;29.55;;;4.05;;
22916;SDS011;11624;53.250;7.456;2023-02-01T16:02:37;28.13;;;4.30;;
22916;SDS011;11624;53.250;7.456;2023-02-01T16:05:25;24.70;;;4.28;;
22916;SDS011;11624;53.250;7.456;2023-02-01T16:08:03;16.83;;;2.97;;
22916;SDS011;11624;53.250;7.456;2023-02-01T16:10:37;27.10;;;4.20;;
22916;SDS011;11624;53.250;7.456;2023-02-01T16:13:08;22.73;;;3.72;;
22916;SDS011;11624;53.250;7.456;2023-02-01T16:15:37;21.83;;;3.42;;
22916;SDS011;11624;53.250;7.456;2023-02-01T16:18:06;27.15;;;4.00;;
22916;SDS011;11624;53.250;7.456;2023-02-01T16:20:36;28.83;;;4.32;;
22916;SDS011;11624;53.250;7.456;2023-02-01T16:23:05;25.17;;;4.70;;
22916;SDS011;11624;53.250;7.456;2023-02-01T16:25:35;20.17;;;4.20;;
22916;SDS011;11624;53.250;7.456;2023-02-01T16:28:04;29.40;;;4.32;;
22916;SDS011;11624;53.250;7.456;2023-02-01T16:30:33;20.90;;;3.70;;
22916;SDS011;11624;53.250;7.456;2023-02-01T16:33:02;25.77;;;3.53;;
22916;SDS011;11624;53.250;7.456;2023-02-01T16:35:32;27.48;;;4.80;;
22916;SDS011;11624;53.250;7.456;2023-02-01T16:38:02;27.48;;;4.22;;